BAW391 EBBR-EGLL
Flight info
| Callsign | BAW391 |
|---|---|
| Flight time | 0h 44m |
| Altitude | 24000 |
| Route | DCT HELEN L179 COA L608 LOGAN LOGAN2H |
| Aircraft | A20N/M-SDGIJ1LRWXY/SB1 |
Departure
| Time | 2026-04-30 20:24 |
|---|---|
| Airport | Brussels Airport (EBBR) |
Arrival
| Time | 2026-04-30 21:09 |
|---|---|
| Airport | London Heathrow Airport (EGLL) |
| Time | Latitude | Longitude | Altitude | Speed | Heading |
|---|---|---|---|---|---|
| 2026-04-30 20:06 | 50.90032 | 4.48993 | 145 ft | 0 kts | 335° |
| 2026-04-30 20:12 | 50.90032 | 4.48994 | 145 ft | 0 kts | 335° |
| 2026-04-30 20:16 | 50.90026 | 4.48998 | 145 ft | 2 kts | 339° |
| 2026-04-30 20:16 | 50.90007 | 4.49004 | 145 ft | 3 kts | 3° |
| 2026-04-30 20:16 | 50.89987 | 4.49003 | 146 ft | 3 kts | 353° |
| 2026-04-30 20:17 | 50.89967 | 4.49008 | 146 ft | 3 kts | 343° |
| 2026-04-30 20:17 | 50.89949 | 4.49019 | 146 ft | 3 kts | 335° |
| 2026-04-30 20:17 | 50.89931 | 4.49031 | 146 ft | 3 kts | 359° |
| 2026-04-30 20:17 | 50.89922 | 4.49030 | 146 ft | 1 kts | 65° |
| 2026-04-30 20:18 | 50.89920 | 4.49023 | 146 ft | 0 kts | 65° |
| 2026-04-30 20:20 | 50.89922 | 4.49031 | 146 ft | 2 kts | 65° |
| 2026-04-30 20:20 | 50.89933 | 4.49069 | 146 ft | 6 kts | 65° |
| 2026-04-30 20:20 | 50.89954 | 4.49142 | 145 ft | 9 kts | 65° |
| 2026-04-30 20:20 | 50.89981 | 4.49254 | 143 ft | 13 kts | 68° |
| 2026-04-30 20:21 | 50.89991 | 4.49370 | 143 ft | 9 kts | 125° |
| 2026-04-30 20:21 | 50.89926 | 4.49377 | 143 ft | 12 kts | 194° |
| 2026-04-30 20:21 | 50.89838 | 4.49342 | 143 ft | 14 kts | 194° |
| 2026-04-30 20:21 | 50.89734 | 4.49300 | 144 ft | 17 kts | 194° |
| 2026-04-30 20:22 | 50.89622 | 4.49248 | 142 ft | 8 kts | 208° |
| 2026-04-30 20:22 | 50.89567 | 4.49192 | 143 ft | 10 kts | 202° |
| 2026-04-30 20:22 | 50.89489 | 4.49158 | 143 ft | 13 kts | 190° |
| 2026-04-30 20:22 | 50.89384 | 4.49114 | 141 ft | 17 kts | 194° |
| 2026-04-30 20:23 | 50.89257 | 4.49064 | 139 ft | 20 kts | 193° |
| 2026-04-30 20:23 | 50.89176 | 4.49045 | 139 ft | 7 kts | 165° |
| 2026-04-30 20:23 | 50.89148 | 4.49089 | 140 ft | 5 kts | 95° |
| 2026-04-30 20:23 | 50.89171 | 4.49195 | 141 ft | 31 kts | 70° |
| 2026-04-30 20:24 | 50.89324 | 4.49855 | 149 ft | 93 kts | 70° |
| 2026-04-30 20:24 | 50.89604 | 4.51073 | 152 ft | 139 kts | 70° |
| 2026-04-30 20:24 | 50.89920 | 4.52418 | 744 ft | 128 kts | 71° |
| 2026-04-30 20:24 | 50.90272 | 4.53732 | 1228 ft | 134 kts | 72° |
| 2026-04-30 20:25 | 50.91524 | 4.56570 | 1894 ft | 180 kts | 62° |
| 2026-04-30 20:25 | 50.92326 | 4.58281 | 2329 ft | 209 kts | 53° |
| 2026-04-30 20:26 | 50.95222 | 4.60569 | 3614 ft | 267 kts | 7° |
| 2026-04-30 20:26 | 50.98782 | 4.58265 | 5220 ft | 292 kts | 312° |
| 2026-04-30 20:26 | 50.99855 | 4.55573 | 6304 ft | 289 kts | 288° |
| 2026-04-30 20:27 | 51.00824 | 4.49288 | 8089 ft | 298 kts | 285° |
| 2026-04-30 20:27 | 51.02472 | 4.43183 | 9960 ft | 305 kts | 298° |
| 2026-04-30 20:28 | 51.04656 | 4.37111 | 11064 ft | 337 kts | 301° |
| 2026-04-30 20:28 | 51.07200 | 4.30439 | 12147 ft | 363 kts | 301° |
| 2026-04-30 20:29 | 51.09394 | 4.24679 | 13510 ft | 369 kts | 301° |
| 2026-04-30 20:30 | 51.13890 | 4.12766 | 15930 ft | 383 kts | 301° |
| 2026-04-30 20:30 | 51.18057 | 4.01657 | 17964 ft | 396 kts | 300° |
| 2026-04-30 20:31 | 51.22319 | 3.90244 | 19800 ft | 406 kts | 300° |
| 2026-04-30 20:32 | 51.25595 | 3.77629 | 21533 ft | 416 kts | 288° |
| 2026-04-30 20:32 | 51.27538 | 3.68829 | 22648 ft | 424 kts | 289° |
| 2026-04-30 20:33 | 51.28520 | 3.64374 | 23243 ft | 426 kts | 289° |
| 2026-04-30 20:33 | 51.30497 | 3.55354 | 23993 ft | 433 kts | 288° |
| 2026-04-30 20:33 | 51.31488 | 3.50815 | 24094 ft | 432 kts | 288° |
| 2026-04-30 20:34 | 51.33463 | 3.41734 | 24245 ft | 433 kts | 288° |
| 2026-04-30 20:34 | 51.35448 | 3.32640 | 24252 ft | 433 kts | 289° |
| 2026-04-30 20:35 | 51.36514 | 3.28127 | 24246 ft | 433 kts | 290° |
| 2026-04-30 20:35 | 51.37588 | 3.23686 | 24241 ft | 433 kts | 290° |
| 2026-04-30 20:35 | 51.39752 | 3.14682 | 24240 ft | 433 kts | 290° |
| 2026-04-30 20:36 | 51.40823 | 3.10166 | 24241 ft | 433 kts | 290° |
| 2026-04-30 20:36 | 51.41889 | 3.05650 | 24240 ft | 434 kts | 289° |
| 2026-04-30 20:36 | 51.44011 | 2.96611 | 24243 ft | 433 kts | 289° |
| 2026-04-30 20:37 | 51.45072 | 2.92079 | 24244 ft | 433 kts | 289° |
| 2026-04-30 20:37 | 51.46128 | 2.87557 | 24245 ft | 433 kts | 289° |
| 2026-04-30 20:37 | 51.47183 | 2.83032 | 24244 ft | 433 kts | 289° |
| 2026-04-30 20:37 | 51.48237 | 2.78502 | 24246 ft | 433 kts | 289° |
| 2026-04-30 20:38 | 51.49289 | 2.73969 | 24236 ft | 433 kts | 289° |
| 2026-04-30 20:38 | 51.50338 | 2.69443 | 24246 ft | 433 kts | 289° |
| 2026-04-30 20:38 | 51.51388 | 2.64900 | 24247 ft | 433 kts | 289° |
| 2026-04-30 20:39 | 51.53480 | 2.55820 | 24240 ft | 433 kts | 289° |
| 2026-04-30 20:39 | 51.54523 | 2.51279 | 24237 ft | 433 kts | 289° |
| 2026-04-30 20:39 | 51.55563 | 2.46741 | 24237 ft | 432 kts | 289° |
| 2026-04-30 20:40 | 51.57624 | 2.37726 | 24232 ft | 433 kts | 289° |
| 2026-04-30 20:40 | 51.58657 | 2.33195 | 24236 ft | 431 kts | 289° |
| 2026-04-30 20:40 | 51.59686 | 2.28668 | 24242 ft | 432 kts | 289° |
| 2026-04-30 20:41 | 51.61750 | 2.19564 | 24238 ft | 432 kts | 289° |
| 2026-04-30 20:41 | 51.62775 | 2.15026 | 24235 ft | 432 kts | 289° |
| 2026-04-30 20:41 | 51.63802 | 2.10472 | 24242 ft | 433 kts | 289° |
| 2026-04-30 20:41 | 51.64826 | 2.05919 | 24246 ft | 432 kts | 288° |
| 2026-04-30 20:42 | 51.65846 | 2.01370 | 24244 ft | 431 kts | 288° |
| 2026-04-30 20:42 | 51.66863 | 1.96829 | 24246 ft | 433 kts | 288° |
| 2026-04-30 20:42 | 51.68896 | 1.87719 | 24243 ft | 431 kts | 288° |
| 2026-04-30 20:43 | 51.69895 | 1.83224 | 24241 ft | 431 kts | 288° |
| 2026-04-30 20:43 | 51.70908 | 1.78658 | 24245 ft | 432 kts | 288° |
| 2026-04-30 20:43 | 51.71917 | 1.74100 | 24200 ft | 432 kts | 288° |
| 2026-04-30 20:44 | 51.73873 | 1.64954 | 23735 ft | 429 kts | 283° |
| 2026-04-30 20:44 | 51.74385 | 1.60247 | 23463 ft | 424 kts | 272° |
| 2026-04-30 20:44 | 51.74107 | 1.50858 | 22516 ft | 417 kts | 261° |
| 2026-04-30 20:45 | 51.73508 | 1.41647 | 21462 ft | 408 kts | 261° |
| 2026-04-30 20:45 | 51.73214 | 1.37112 | 20936 ft | 403 kts | 261° |
| 2026-04-30 20:45 | 51.72922 | 1.32632 | 20407 ft | 399 kts | 261° |
| 2026-04-30 20:46 | 51.72053 | 1.19505 | 18870 ft | 388 kts | 261° |
| 2026-04-30 20:46 | 51.71764 | 1.15202 | 18342 ft | 385 kts | 261° |
| 2026-04-30 20:47 | 51.71191 | 1.06705 | 17338 ft | 376 kts | 261° |
| 2026-04-30 20:47 | 51.70906 | 1.02516 | 16818 ft | 373 kts | 261° |
| 2026-04-30 20:48 | 51.70339 | 0.94283 | 16384 ft | 377 kts | 261° |
| 2026-04-30 20:48 | 51.70048 | 0.90094 | 16246 ft | 370 kts | 261° |
| 2026-04-30 20:48 | 51.69769 | 0.86050 | 16109 ft | 357 kts | 261° |
| 2026-04-30 20:48 | 51.69499 | 0.82155 | 15988 ft | 343 kts | 261° |
| 2026-04-30 20:49 | 51.69236 | 0.78388 | 15752 ft | 330 kts | 260° |
| 2026-04-30 20:49 | 51.68979 | 0.74748 | 15179 ft | 327 kts | 260° |
| 2026-04-30 20:49 | 51.68720 | 0.71116 | 14578 ft | 325 kts | 260° |
| 2026-04-30 20:50 | 51.68204 | 0.63927 | 13359 ft | 320 kts | 260° |
| 2026-04-30 20:50 | 51.67950 | 0.60385 | 12753 ft | 317 kts | 260° |
| 2026-04-30 20:50 | 51.67696 | 0.56870 | 12163 ft | 314 kts | 259° |
| 2026-04-30 20:50 | 51.67443 | 0.53381 | 11573 ft | 312 kts | 259° |
| 2026-04-30 20:51 | 51.67194 | 0.49944 | 11126 ft | 304 kts | 259° |
| 2026-04-30 20:51 | 51.66706 | 0.43281 | 10366 ft | 299 kts | 259° |
| 2026-04-30 20:51 | 51.66457 | 0.39921 | 10008 ft | 298 kts | 259° |
| 2026-04-30 20:52 | 51.66210 | 0.36594 | 9634 ft | 299 kts | 259° |
| 2026-04-30 20:52 | 51.65967 | 0.33323 | 9273 ft | 297 kts | 260° |
| 2026-04-30 20:52 | 51.65480 | 0.26777 | 8557 ft | 290 kts | 261° |
| 2026-04-30 20:53 | 51.65360 | 0.23564 | 8354 ft | 286 kts | 266° |
| 2026-04-30 20:53 | 51.65320 | 0.20320 | 8245 ft | 291 kts | 266° |
| 2026-04-30 20:53 | 51.65279 | 0.17075 | 8212 ft | 289 kts | 266° |
| 2026-04-30 20:54 | 51.65195 | 0.10584 | 8204 ft | 289 kts | 266° |
| 2026-04-30 20:54 | 51.65154 | 0.07398 | 8204 ft | 290 kts | 266° |
| 2026-04-30 20:54 | 51.65112 | 0.04148 | 8204 ft | 290 kts | 266° |
| 2026-04-30 20:55 | 51.65025 | -0.02343 | 8248 ft | 289 kts | 266° |
| 2026-04-30 20:55 | 51.64981 | -0.05565 | 8250 ft | 288 kts | 266° |
| 2026-04-30 20:55 | 51.64939 | -0.08791 | 8256 ft | 288 kts | 266° |
| 2026-04-30 20:56 | 51.64848 | -0.15250 | 8267 ft | 288 kts | 266° |
| 2026-04-30 20:56 | 51.64744 | -0.18420 | 8213 ft | 285 kts | 260° |
| 2026-04-30 20:56 | 51.64021 | -0.24653 | 7589 ft | 282 kts | 256° |
| 2026-04-30 20:57 | 51.63640 | -0.27724 | 7377 ft | 278 kts | 256° |
| 2026-04-30 20:57 | 51.63253 | -0.30809 | 7280 ft | 282 kts | 256° |
| 2026-04-30 20:57 | 51.62866 | -0.33894 | 7266 ft | 281 kts | 256° |
| 2026-04-30 20:58 | 51.62093 | -0.40073 | 7211 ft | 280 kts | 256° |
| 2026-04-30 20:58 | 51.61707 | -0.43148 | 7210 ft | 281 kts | 256° |
| 2026-04-30 20:58 | 51.61450 | -0.45190 | 7211 ft | 281 kts | 256° |
| 2026-04-30 20:58 | 51.60931 | -0.49312 | 7211 ft | 281 kts | 256° |
| 2026-04-30 20:59 | 51.60285 | -0.54436 | 7210 ft | 280 kts | 256° |
| 2026-04-30 20:59 | 51.59897 | -0.57519 | 7209 ft | 281 kts | 256° |
| 2026-04-30 21:00 | 51.58993 | -0.64673 | 7204 ft | 281 kts | 256° |
| 2026-04-30 21:00 | 51.58339 | -0.69837 | 7203 ft | 281 kts | 256° |
| 2026-04-30 21:01 | 51.57558 | -0.75993 | 7202 ft | 281 kts | 256° |
| 2026-04-30 21:01 | 51.57170 | -0.79039 | 7175 ft | 280 kts | 256° |
| 2026-04-30 21:01 | 51.56385 | -0.85123 | 6660 ft | 277 kts | 256° |
| 2026-04-30 21:02 | 51.55989 | -0.88143 | 6290 ft | 275 kts | 256° |
| 2026-04-30 21:02 | 51.55393 | -0.91016 | 5895 ft | 269 kts | 236° |
| 2026-04-30 21:02 | 51.54108 | -0.93116 | 5498 ft | 262 kts | 208° |
| 2026-04-30 21:02 | 51.52400 | -0.93948 | 5117 ft | 256 kts | 180° |
| 2026-04-30 21:03 | 51.50689 | -0.93350 | 4758 ft | 253 kts | 152° |
| 2026-04-30 21:03 | 51.49387 | -0.91486 | 4425 ft | 252 kts | 127° |
| 2026-04-30 21:03 | 51.48434 | -0.89145 | 4121 ft | 249 kts | 121° |
| 2026-04-30 21:03 | 51.47844 | -0.86594 | 4005 ft | 252 kts | 105° |
| 2026-04-30 21:04 | 51.47637 | -0.83785 | 3985 ft | 254 kts | 96° |
| 2026-04-30 21:04 | 51.47626 | -0.80948 | 3985 ft | 255 kts | 92° |
| 2026-04-30 21:04 | 51.47654 | -0.75157 | 3414 ft | 264 kts | 94° |
| 2026-04-30 21:05 | 51.47664 | -0.72227 | 3007 ft | 258 kts | 94° |
| 2026-04-30 21:05 | 51.47675 | -0.69415 | 2661 ft | 245 kts | 94° |
| 2026-04-30 21:05 | 51.47686 | -0.66834 | 2344 ft | 217 kts | 95° |
| 2026-04-30 21:05 | 51.47694 | -0.64543 | 2068 ft | 193 kts | 95° |
| 2026-04-30 21:06 | 51.47702 | -0.62525 | 1856 ft | 168 kts | 96° |
| 2026-04-30 21:06 | 51.47708 | -0.60777 | 1638 ft | 145 kts | 96° |
| 2026-04-30 21:06 | 51.47713 | -0.59256 | 1441 ft | 129 kts | 95° |
| 2026-04-30 21:06 | 51.47717 | -0.57882 | 1272 ft | 121 kts | 95° |
| 2026-04-30 21:07 | 51.47719 | -0.56507 | 1107 ft | 124 kts | 94° |
| 2026-04-30 21:07 | 51.47725 | -0.55107 | 969 ft | 127 kts | 92° |
| 2026-04-30 21:07 | 51.47734 | -0.53717 | 775 ft | 127 kts | 91° |
| 2026-04-30 21:07 | 51.47741 | -0.52288 | 608 ft | 129 kts | 90° |
| 2026-04-30 21:08 | 51.47735 | -0.50828 | 439 ft | 128 kts | 89° |
| 2026-04-30 21:08 | 51.47740 | -0.49395 | 244 ft | 128 kts | 89° |
| 2026-04-30 21:08 | 51.47748 | -0.47990 | 107 ft | 126 kts | 89° |
| 2026-04-30 21:08 | 51.47754 | -0.46715 | 93 ft | 87 kts | 89° |
| 2026-04-30 21:09 | 51.47744 | -0.46200 | 88 ft | 14 kts | 131° |
| 2026-04-30 21:09 | 51.47652 | -0.46086 | 88 ft | 18 kts | 143° |
| 2026-04-30 21:09 | 51.47588 | -0.46104 | 90 ft | 8 kts | 232° |
| 2026-04-30 21:09 | 51.47591 | -0.46217 | 86 ft | 13 kts | 276° |
| 2026-04-30 21:10 | 51.47593 | -0.46391 | 87 ft | 17 kts | 269° |
| 2026-04-30 21:10 | 51.47589 | -0.46599 | 87 ft | 20 kts | 268° |
| 2026-04-30 21:10 | 51.47585 | -0.46839 | 90 ft | 23 kts | 268° |
| 2026-04-30 21:10 | 51.47581 | -0.47104 | 90 ft | 25 kts | 269° |
| 2026-04-30 21:11 | 51.47578 | -0.47396 | 90 ft | 27 kts | 270° |
| 2026-04-30 21:11 | 51.47580 | -0.47635 | 90 ft | 19 kts | 271° |
| 2026-04-30 21:11 | 51.47580 | -0.47868 | 90 ft | 22 kts | 269° |
| 2026-04-30 21:11 | 51.47578 | -0.48129 | 90 ft | 25 kts | 269° |
| 2026-04-30 21:12 | 51.47577 | -0.48371 | 90 ft | 11 kts | 270° |
| 2026-04-30 21:12 | 51.47541 | -0.48470 | 86 ft | 12 kts | 198° |
| 2026-04-30 21:12 | 51.47445 | -0.48477 | 86 ft | 15 kts | 179° |
| 2026-04-30 21:12 | 51.47329 | -0.48476 | 86 ft | 18 kts | 179° |
| 2026-04-30 21:13 | 51.47254 | -0.48475 | 86 ft | 1 kts | 179° |
| 2026-04-30 21:13 | 51.47239 | -0.48480 | 86 ft | 2 kts | 210° |
| 2026-04-30 21:13 | 51.47232 | -0.48517 | 86 ft | 5 kts | 259° |
| 2026-04-30 21:13 | 51.47232 | -0.48563 | 87 ft | 1 kts | 272° |
| 2026-04-30 21:14 | 51.47232 | -0.48578 | 87 ft | 1 kts | 271° |
| 2026-04-30 21:14 | 51.47232 | -0.48587 | 87 ft | 1 kts | 270° |
| 2026-04-30 21:14 | 51.47232 | -0.48588 | 88 ft | 0 kts | 270° |
| 2026-04-30 21:14 | 51.47232 | -0.48590 | 88 ft | 0 kts | 270° |